Aérodrome :
LOGIN :

S'inscrire | Disclaimer

   EN    FR    IT 

 










Légende :    VFR   VFR Marginal   IFR   IFR Intensif   IFR Très Intensif
Visi : 
Plafond : 
>= 8 km
>= 3000ft
5 à 8 km
1000 à 3000 ft
1500m à 5 km
500 à 1000 ft
800 à 1500m
200 à 500 ft
< 800m
< 200 ft
Symboles :   Orages  Brouillard  Fortes neiges  Fortes précipitations  Vent > 20 kt
SIGMETs :   Divers  Orages  Givrage  Turbulence  Onde Orograph.  Cendres Volcan.






- Altitude de l'aérodrome : 2313 ft
- Code IATA : OHD


LWOH - Ohrid

DERNIER METAR :
  • 240950Z 14012KT 9999 SCT040 14/07 Q1009

METARs EXPIRÉS :
  • 240920Z 14010KT 110V180 9999 SCT040 14/07 Q1009
  • 240850Z 15011KT 9999 SCT040 13/08 Q1009
  • 240820Z 15012KT 9999 FEW030 SCT040 13/08 Q1009
  • 240750Z 14010KT 100V170 9999 FEW019 SCT040 12/07 Q1009
  • 240720Z 16008KT 130V240 9999 FEW009 SCT033 12/07 Q1008
  • 240650Z 14009KT 9999 FEW009 SCT033 11/08 Q1008
  • 240620Z VRB02KT 9999 FEW009 BKN033 10/08 Q1009
  • 240550Z VRB02KT 9999 FEW009 BKN033 08/07 Q1009
  • 240520Z 32003KT 190V340 9999 FEW009 BKN039 06/06 Q1008
  • 240450Z 28004KT 9999 FEW010 BKN040 06/05 Q1008

TAF TAF LWOH
Valide du 24 à 09h jusqu'au 25 à 09h UTC


240825Z 2409/2509 15012KT 9999 SCT040
TEMPO 2420/2506 RA SCT020 OVC040



MET'MAP, la Météo Aéronautique d'un coup d'oeil ! - Copyright ORBIFLY Décembre 2007 - Disclaimer

ORBIFLY MET'MAP TEAM :

Programmation & Développement : Alexandra Zaïnal
Sur une idée originale de : Baudouin d'Aumeries
Soutien technique & logistique : Manuel Goepfert
Assistance : Marc-Olivier Méhu




SOURCES & CREDITS :

   NOAA